Ryoho Maru No.2 — JD2964 — position and weather

sailwx.info

Track history (hours):
 
Tides and Currents Weather Stations Pressure Air Temp Water Temp Dewpoint Dewpoint Depression Visibility Wind Speed Wind Dir Waves Ship Positions

Ryoho Maru No.2

Last reported at 2017-Sep-24 23:45 UTC. Time now 2017-Sep-25 02:40 UTC.
Position N 35°29' E 139°59'.

Length 57 m; draft 4 m.

Type: Tanker. MMSI: 431001062.

Date/timePositionNaut miles runAvg speedWind from/ knotsBaromVisibWave heightAir tempDewpointWater temp
2017-Sep-24 23:45N 35°29' E 139°59'1 0.5
2017-Sep-24 22:38N 35°29' E 139°58'1 9.9
2017-Sep-24 22:30N 35°30' E 139°57'5 9.4
2017-Sep-24 22:00N 35°28' E 139°51'611.2
2017-Sep-24 21:30N 35°24' E 139°46'611.3
2017-Sep-24 21:00N 35°19' E 139°44'510.9
2017-Sep-24 20:30N 35°14' E 139°47'510.7
2017-Sep-24 20:00N 35°08' E 139°47'510.7
2017-Sep-24 19:30N 35°03' E 139°45'511.0
2017-Sep-24 19:00N 34°58' E 139°44'510.2
2017-Sep-24 18:28N 34°53' E 139°48'  
2017-Sep-19 07:31N 34°57' E 139°45'013.1
2017-Sep-19 07:30N 34°57' E 139°45'4 9.0
2017-Sep-19 07:00N 35°02' E 139°45'4 8.7
2017-Sep-19 06:30N 35°06' E 139°45'5 9.2
2017-Sep-19 06:00N 35°11' E 139°46'5 9.2
2017-Sep-19 05:30N 35°15' E 139°46'4 8.6
2017-Sep-19 05:00N 35°19' E 139°43'5 9.1
2017-Sep-19 04:30N 35°23' E 139°43'5 9.6
2017-Sep-19 04:00N 35°27' E 139°47'510.1
2017-Sep-19 03:31N 35°30' E 139°52'7 1.6
2017-Sep-18 22:49N 35°29' E 140°01'1 0.0
2017-Sep-18 09:08N 35°29' E 139°60'0 0.0
2017-Sep-18 08:56N 35°29' E 139°60'0 0.0
2017-Sep-18 07:26N 35°29' E 139°60'0 0.0
2017-Sep-18 06:35N 35°29' E 139°60'0 0.0
2017-Sep-18 06:23N 35°29' E 139°60'0 0.0
2017-Sep-18 05:38N 35°29' E 139°60'0 0.0
2017-Sep-18 05:23N 35°29' E 139°60'0 0.0
2017-Sep-18 04:12N 35°29' E 139°60'0 0.0
2017-Sep-18 03:50N 35°29' E 139°60'0 0.0
2017-Sep-18 02:47N 35°29' E 139°60'2 7.9
2017-Sep-18 02:30N 35°31' E 139°58'510.4
2017-Sep-18 02:00N 35°36' E 139°56'1 1.9
2017-Sep-18 01:29N 35°36' E 139°55'0 0.0
2017-Sep-18 00:57N 35°36' E 139°55'0 0.0
2017-Sep-18 00:28N 35°36' E 139°55'0 0.0
2017-Sep-17 23:54N 35°36' E 139°55'0 0.0
2017-Sep-17 23:23N 35°36' E 139°55'0 0.0
2017-Sep-17 22:59N 35°36' E 139°55'0 0.0
2017-Sep-17 21:51N 35°36' E 139°55'0 0.0
2017-Sep-17 21:26N 35°36' E 139°55'0 0.0
2017-Sep-17 21:00N 35°36' E 139°55'0 0.0
2017-Sep-17 20:22N 35°36' E 139°55'0 0.0
2017-Sep-17 19:56N 35°37' E 139°55'0 0.0
2017-Sep-17 19:25N 35°36' E 139°55'0 0.0
2017-Sep-17 18:51N 35°36' E 139°55'0 0.0
2017-Sep-17 18:28N 35°36' E 139°55'0 0.0
2017-Sep-17 17:58N 35°36' E 139°55'0 0.0
2017-Sep-17 17:27N 35°36' E 139°55'0 0.1
2017-Sep-17 17:00N 35°36' E 139°55'0 0.0
2017-Sep-17 16:30N 35°36' E 139°55'0 0.0
2017-Sep-17 16:00N 35°36' E 139°55'0 0.1
2017-Sep-17 15:10N 35°36' E 139°55'0 0.2
2017-Sep-17 14:54N 35°36' E 139°55'0 0.0
2017-Sep-17 10:41N 35°36' E 139°55'0 0.0
2017-Sep-17 10:08N 35°36' E 139°55'0 0.2
2017-Sep-17 09:53N 35°36' E 139°55'0 0.0
2017-Sep-17 01:17N 35°36' E 139°55'0 0.0
2017-Sep-17 00:59N 35°36' E 139°55'0 0.0
2017-Sep-17 00:29N 35°36' E 139°55'0 0.0
2017-Sep-16 23:53N 35°36' E 139°55'0 0.0
2017-Sep-16 23:29N 35°36' E 139°55'0 0.0
2017-Sep-16 22:59N 35°36' E 139°55'0 0.0
2017-Sep-16 22:29N 35°36' E 139°55'0 0.0
2017-Sep-16 21:59N 35°36' E 139°55'0 0.1
2017-Sep-16 21:29N 35°36' E 139°55'0 0.1
2017-Sep-16 20:59N 35°36' E 139°55'0 0.1
2017-Sep-16 20:29N 35°36' E 139°55'0 0.0
2017-Sep-16 19:56N 35°36' E 139°55'0 0.0
2017-Sep-16 19:29N 35°36' E 139°55'0 0.0
2017-Sep-16 18:59N 35°36' E 139°55'0 0.0
2017-Sep-16 18:29N 35°36' E 139°55'0 0.0
2017-Sep-16 17:59N 35°36' E 139°55'0 0.1
2017-Sep-16 17:29N 35°36' E 139°55'0 0.0
2017-Sep-16 16:59N 35°36' E 139°55'0 0.0
2017-Sep-16 16:29N 35°36' E 139°55'0 0.0
2017-Sep-16 15:59N 35°36' E 139°55'0 0.0
2017-Sep-16 15:29N 35°36' E 139°55'0 0.0
2017-Sep-16 14:59N 35°36' E 139°55'0 0.0
2017-Sep-16 14:26N 35°36' E 139°55'0 0.1
2017-Sep-16 13:59N 35°36' E 139°55'0 0.0
2017-Sep-16 13:23N 35°36' E 139°55'0 0.0
2017-Sep-16 10:38N 35°36' E 139°55'0 0.0
2017-Sep-16 10:26N 35°36' E 139°55'0 0.0
2017-Sep-16 06:02N 35°36' E 139°55'0 0.0
2017-Sep-16 05:08N 35°36' E 139°55'0 0.0
2017-Sep-16 04:53N 35°36' E 139°55'0 0.0
2017-Sep-16 03:53N 35°36' E 139°55'0 0.0
2017-Sep-16 03:26N 35°36' E 139°55'0 0.0
2017-Sep-16 02:59N 35°36' E 139°55'0 0.1
2017-Sep-16 02:23N 35°36' E 139°55'0 0.0
2017-Sep-15 23:59N 35°36' E 139°55'0 0.0
2017-Sep-15 23:29N 35°36' E 139°55'0 0.0
2017-Sep-15 16:23N 35°36' E 139°55'0 0.0
2017-Sep-15 15:08N 35°36' E 139°55'0 0.0
2017-Sep-15 14:59N 35°36' E 139°55'0 0.0
2017-Sep-15 10:17N 35°36' E 139°55'0 0.0
2017-Sep-15 09:59N 35°36' E 139°55'0 0.1
2017-Sep-15 09:17N 35°36' E 139°55'0 0.0
2017-Sep-15 08:56N 35°36' E 139°55'0 0.0
2017-Sep-15 08:26N 35°36' E 139°55'0 0.0
2017-Sep-15 07:59N 35°36' E 139°55'0 0.0
2017-Sep-15 05:03N 35°36' E 139°55'0 2.7
2017-Sep-15 05:00N 35°36' E 139°55'510.2
2017-Sep-15 04:30N 35°32' E 139°51'5 9.0
2017-Sep-15 04:00N 35°31' E 139°46'1 1.7
2017-Sep-15 03:30N 35°32' E 139°45'0 0.0
2017-Sep-15 03:00N 35°32' E 139°45'0 0.0
2017-Sep-15 02:30N 35°32' E 139°45'0 0.0
2017-Sep-15 02:00N 35°32' E 139°45'0 0.0
2017-Sep-15 01:30N 35°32' E 139°45'0 0.0
2017-Sep-15 01:00N 35°32' E 139°45'0 0.0
2017-Sep-15 00:30N 35°32' E 139°45'0 0.0
2017-Sep-15 00:00N 35°32' E 139°45'  
Track history (hours):
 
Tides and Currents Weather Stations Pressure Air Temp Water Temp Dewpoint Dewpoint Depression Visibility Wind Speed Wind Dir Waves Ship Positions

Ryoho Maru No.2

Last reported at 2017-Sep-24 23:45 UTC. Time now 2017-Sep-25 02:40 UTC.
Position N 35°29' E 139°59'.

Length 57 m; draft 4 m.

Type: Tanker. MMSI: 431001062.

Date/timePositionNaut miles runAvg speedWind from/ knotsBaromVisibWave heightAir tempDewpointWater temp
2017-Sep-24 23:45N 35°29' E 139°59'1 0.5
2017-Sep-24 22:38N 35°29' E 139°58'1 9.9
2017-Sep-24 22:30N 35°30' E 139°57'5 9.4
2017-Sep-24 22:00N 35°28' E 139°51'611.2
2017-Sep-24 21:30N 35°24' E 139°46'611.3
2017-Sep-24 21:00N 35°19' E 139°44'510.9
2017-Sep-24 20:30N 35°14' E 139°47'510.7
2017-Sep-24 20:00N 35°08' E 139°47'510.7
2017-Sep-24 19:30N 35°03' E 139°45'511.0
2017-Sep-24 19:00N 34°58' E 139°44'510.2
2017-Sep-24 18:28N 34°53' E 139°48'  
2017-Sep-19 07:31N 34°57' E 139°45'013.1
2017-Sep-19 07:30N 34°57' E 139°45'4 9.0
2017-Sep-19 07:00N 35°02' E 139°45'4 8.7
2017-Sep-19 06:30N 35°06' E 139°45'5 9.2
2017-Sep-19 06:00N 35°11' E 139°46'5 9.2
2017-Sep-19 05:30N 35°15' E 139°46'4 8.6
2017-Sep-19 05:00N 35°19' E 139°43'5 9.1
2017-Sep-19 04:30N 35°23' E 139°43'5 9.6
2017-Sep-19 04:00N 35°27' E 139°47'510.1
2017-Sep-19 03:31N 35°30' E 139°52'7 1.6
2017-Sep-18 22:49N 35°29' E 140°01'1 0.0
2017-Sep-18 09:08N 35°29' E 139°60'0 0.0
2017-Sep-18 08:56N 35°29' E 139°60'0 0.0
2017-Sep-18 07:26N 35°29' E 139°60'0 0.0
2017-Sep-18 06:35N 35°29' E 139°60'0 0.0
2017-Sep-18 06:23N 35°29' E 139°60'0 0.0
2017-Sep-18 05:38N 35°29' E 139°60'0 0.0
2017-Sep-18 05:23N 35°29' E 139°60'0 0.0
2017-Sep-18 04:12N 35°29' E 139°60'0 0.0
2017-Sep-18 03:50N 35°29' E 139°60'0 0.0
2017-Sep-18 02:47N 35°29' E 139°60'2 7.9
2017-Sep-18 02:30N 35°31' E 139°58'510.4
2017-Sep-18 02:00N 35°36' E 139°56'1 1.9
2017-Sep-18 01:29N 35°36' E 139°55'0 0.0
2017-Sep-18 00:57N 35°36' E 139°55'0 0.0
2017-Sep-18 00:28N 35°36' E 139°55'0 0.0
2017-Sep-17 23:54N 35°36' E 139°55'0 0.0
2017-Sep-17 23:23N 35°36' E 139°55'0 0.0
2017-Sep-17 22:59N 35°36' E 139°55'0 0.0
2017-Sep-17 21:51N 35°36' E 139°55'0 0.0
2017-Sep-17 21:26N 35°36' E 139°55'0 0.0
2017-Sep-17 21:00N 35°36' E 139°55'0 0.0
2017-Sep-17 20:22N 35°36' E 139°55'0 0.0
2017-Sep-17 19:56N 35°37' E 139°55'0 0.0
2017-Sep-17 19:25N 35°36' E 139°55'0 0.0
2017-Sep-17 18:51N 35°36' E 139°55'0 0.0
2017-Sep-17 18:28N 35°36' E 139°55'0 0.0
2017-Sep-17 17:58N 35°36' E 139°55'0 0.0
2017-Sep-17 17:27N 35°36' E 139°55'0 0.1
2017-Sep-17 17:00N 35°36' E 139°55'0 0.0
2017-Sep-17 16:30N 35°36' E 139°55'0 0.0
2017-Sep-17 16:00N 35°36' E 139°55'0 0.1
2017-Sep-17 15:10N 35°36' E 139°55'0 0.2
2017-Sep-17 14:54N 35°36' E 139°55'0 0.0
2017-Sep-17 10:41N 35°36' E 139°55'0 0.0
2017-Sep-17 10:08N 35°36' E 139°55'0 0.2
2017-Sep-17 09:53N 35°36' E 139°55'0 0.0
2017-Sep-17 01:17N 35°36' E 139°55'0 0.0
2017-Sep-17 00:59N 35°36' E 139°55'0 0.0
2017-Sep-17 00:29N 35°36' E 139°55'0 0.0
2017-Sep-16 23:53N 35°36' E 139°55'0 0.0
2017-Sep-16 23:29N 35°36' E 139°55'0 0.0
2017-Sep-16 22:59N 35°36' E 139°55'0 0.0
2017-Sep-16 22:29N 35°36' E 139°55'0 0.0
2017-Sep-16 21:59N 35°36' E 139°55'0 0.1
2017-Sep-16 21:29N 35°36' E 139°55'0 0.1
2017-Sep-16 20:59N 35°36' E 139°55'0 0.1
2017-Sep-16 20:29N 35°36' E 139°55'0 0.0
2017-Sep-16 19:56N 35°36' E 139°55'0 0.0
2017-Sep-16 19:29N 35°36' E 139°55'0 0.0
2017-Sep-16 18:59N 35°36' E 139°55'0 0.0
2017-Sep-16 18:29N 35°36' E 139°55'0 0.0
2017-Sep-16 17:59N 35°36' E 139°55'0 0.1
2017-Sep-16 17:29N 35°36' E 139°55'0 0.0
2017-Sep-16 16:59N 35°36' E 139°55'0 0.0
2017-Sep-16 16:29N 35°36' E 139°55'0 0.0
2017-Sep-16 15:59N 35°36' E 139°55'0 0.0
2017-Sep-16 15:29N 35°36' E 139°55'0 0.0
2017-Sep-16 14:59N 35°36' E 139°55'0 0.0
2017-Sep-16 14:26N 35°36' E 139°55'0 0.1
2017-Sep-16 13:59N 35°36' E 139°55'0 0.0
2017-Sep-16 13:23N 35°36' E 139°55'0 0.0
2017-Sep-16 10:38N 35°36' E 139°55'0 0.0
2017-Sep-16 10:26N 35°36' E 139°55'0 0.0
2017-Sep-16 06:02N 35°36' E 139°55'0 0.0
2017-Sep-16 05:08N 35°36' E 139°55'0 0.0
2017-Sep-16 04:53N 35°36' E 139°55'0 0.0
2017-Sep-16 03:53N 35°36' E 139°55'0 0.0
2017-Sep-16 03:26N 35°36' E 139°55'0 0.0
2017-Sep-16 02:59N 35°36' E 139°55'0 0.1
2017-Sep-16 02:23N 35°36' E 139°55'0 0.0
2017-Sep-15 23:59N 35°36' E 139°55'0 0.0
2017-Sep-15 23:29N 35°36' E 139°55'0 0.0
2017-Sep-15 16:23N 35°36' E 139°55'0 0.0
2017-Sep-15 15:08N 35°36' E 139°55'0 0.0
2017-Sep-15 14:59N 35°36' E 139°55'0 0.0
2017-Sep-15 10:17N 35°36' E 139°55'0 0.0
2017-Sep-15 09:59N 35°36' E 139°55'0 0.1
2017-Sep-15 09:17N 35°36' E 139°55'0 0.0
2017-Sep-15 08:56N 35°36' E 139°55'0 0.0
2017-Sep-15 08:26N 35°36' E 139°55'0 0.0
2017-Sep-15 07:59N 35°36' E 139°55'0 0.0
2017-Sep-15 05:03N 35°36' E 139°55'0 2.7
2017-Sep-15 05:00N 35°36' E 139°55'510.2
2017-Sep-15 04:30N 35°32' E 139°51'5 9.0
2017-Sep-15 04:00N 35°31' E 139°46'1 1.7
2017-Sep-15 03:30N 35°32' E 139°45'0 0.0
2017-Sep-15 03:00N 35°32' E 139°45'0 0.0
2017-Sep-15 02:30N 35°32' E 139°45'0 0.0
2017-Sep-15 02:00N 35°32' E 139°45'0 0.0
2017-Sep-15 01:30N 35°32' E 139°45'0 0.0
2017-Sep-15 01:00N 35°32' E 139°45'0 0.0
2017-Sep-15 00:30N 35°32' E 139°45'0 0.0
2017-Sep-15 00:00N 35°32' E 139°45'  

Dump ship's entire track history